createdAt,value
2023-03-29T00:01:12.970Z,84.75
2023-03-29T00:06:36.178Z,84.66
2023-03-29T00:11:39.439Z,84.58
2023-03-29T00:16:44.640Z,84.41
2023-03-29T00:21:47.386Z,83.77
2023-03-29T00:26:49.984Z,83.67
2023-03-29T00:31:54.338Z,83.62
2023-03-29T00:36:58.142Z,83.52
2023-03-29T00:42:00.808Z,82.97
2023-03-29T00:47:03.613Z,82.51
2023-03-29T00:52:07.420Z,82.84
2023-03-29T00:57:11.845Z,82.71
2023-03-29T01:02:22.281Z,82.77
2023-03-29T01:07:48.192Z,82.75
2023-03-29T01:12:56.464Z,82.79
2023-03-29T01:18:02.024Z,82.44
2023-03-29T01:23:17.579Z,82.76
2023-03-29T01:28:33.538Z,82.78
2023-03-29T01:33:45.405Z,82.57
2023-03-29T01:38:52.963Z,83.22
2023-03-29T01:44:04.753Z,83.20
2023-03-29T01:49:28.716Z,83.35
2023-03-29T01:54:39.931Z,82.83
2023-03-29T01:59:46.045Z,82.52
2023-03-29T02:04:52.525Z,82.97
2023-03-29T02:09:55.732Z,82.97
2023-03-29T02:14:59.812Z,83.10
2023-03-29T02:20:20.677Z,83.43
2023-03-29T02:25:24.626Z,83.52
2023-03-29T02:30:34.888Z,83.11
2023-03-29T02:35:46.302Z,83.22
2023-03-29T02:40:49.244Z,83.12
2023-03-29T02:45:53.149Z,82.75
2023-03-29T02:51:01.567Z,82.71
2023-03-29T02:56:04.904Z,82.56
2023-03-29T03:01:09.766Z,82.95
2023-03-29T03:06:13.635Z,83.37
2023-03-29T03:11:17.105Z,82.54
2023-03-29T03:16:19.709Z,83.08
2023-03-29T03:21:23.246Z,82.79
2023-03-29T03:26:30.013Z,82.32
2023-03-29T03:31:33.721Z,82.46
2023-03-29T03:36:48.901Z,82.53
2023-03-29T03:41:51.493Z,82.08
2023-03-29T03:46:54.839Z,81.98
2023-03-29T03:51:57.433Z,81.17
2023-03-29T03:57:00.198Z,81.24
2023-03-29T04:02:11.432Z,81.57
2023-03-29T04:07:17.941Z,80.40
2023-03-29T04:12:46.956Z,80.41
2023-03-29T04:17:49.723Z,80.24
2023-03-29T04:23:06.953Z,79.80
2023-03-29T04:28:12.865Z,79.09
2023-03-29T04:33:29.485Z,78.78
2023-03-29T04:38:38.481Z,78.25
2023-03-29T04:43:41.725Z,77.67
2023-03-29T04:48:57.515Z,77.77
2023-03-29T04:54:10.909Z,77.47
2023-03-29T04:59:33.208Z,77.02
2023-03-29T05:04:38.622Z,76.36
2023-03-29T05:09:48.202Z,76.16
2023-03-29T05:14:51.299Z,75.95
2023-03-29T05:19:55.105Z,75.99
2023-03-29T05:25:00.710Z,75.72
2023-03-29T05:30:04.044Z,75.90
2023-03-29T05:35:29.439Z,75.99
2023-03-29T05:40:34.158Z,75.80
2023-03-29T05:45:55.754Z,75.15
2023-03-29T05:50:59.435Z,74.33
2023-03-29T05:56:02.446Z,74.21
2023-03-29T06:01:12.686Z,73.86
2023-03-29T06:06:36.290Z,73.33
2023-03-29T06:11:39.359Z,72.68
2023-03-29T06:16:45.180Z,71.86
2023-03-29T06:21:49.428Z,71.95
2023-03-29T06:26:58.175Z,71.90
2023-03-29T06:32:00.859Z,71.49
2023-03-29T06:37:32.719Z,71.07
2023-03-29T06:42:46.687Z,71.84
2023-03-29T06:48:08.197Z,72.13
2023-03-29T06:53:11.643Z,72.91
2023-03-29T06:58:15.763Z,73.42
2023-03-29T07:03:23.637Z,74.41
2023-03-29T07:08:35.288Z,75.48
2023-03-29T07:13:44.040Z,77.44
2023-03-29T07:18:51.400Z,78.91
2023-03-29T07:24:13.109Z,79.93
2023-03-29T07:29:16.993Z,78.92
2023-03-29T07:34:20.003Z,80.62
2023-03-29T07:39:22.858Z,80.96
2023-03-29T07:44:45.906Z,83.06
2023-03-29T07:49:49.001Z,83.81
2023-03-29T07:54:52.310Z,84.44
2023-03-29T08:00:16.689Z,84.47
2023-03-29T08:05:40.734Z,84.71
2023-03-29T08:10:50.474Z,84.78
2023-03-29T08:16:03.550Z,84.87
2023-03-29T08:21:11.861Z,85.00
2023-03-29T08:26:16.062Z,83.97
2023-03-29T08:31:19.433Z,82.34
2023-03-29T08:36:22.550Z,82.09
2023-03-29T08:41:58.421Z,81.50
2023-03-29T08:47:28.734Z,81.52
2023-03-29T08:52:38.118Z,82.25
2023-03-29T08:58:08.318Z,83.53
2023-03-29T09:03:24.417Z,84.83
2023-03-29T09:08:30.595Z,85.14
2023-03-29T09:13:39.352Z,85.70
2023-03-29T09:18:59.875Z,85.38
2023-03-29T09:24:10.251Z,86.52
2023-03-29T09:30:17.262Z,86.97
2023-03-29T09:35:38.988Z,88.03
2023-03-29T09:40:45.257Z,88.67
2023-03-29T09:46:00.827Z,89.42
2023-03-29T09:51:07.683Z,89.11
2023-03-29T09:56:15.944Z,90.08
2023-03-29T10:01:24.012Z,90.12
2023-03-29T10:06:27.069Z,91.20
2023-03-29T10:11:38.669Z,91.69
2023-03-29T10:16:46.217Z,91.93
2023-03-29T10:21:56.018Z,91.84
2023-03-29T10:27:02.379Z,92.39
2023-03-29T10:32:15.622Z,92.78
2023-03-29T10:37:19.958Z,93.14
2023-03-29T10:42:24.536Z,93.84
2023-03-29T10:47:34.454Z,93.76
2023-03-29T10:52:39.982Z,94.30
2023-03-29T10:58:13.573Z,94.12
2023-03-29T11:03:43.817Z,94.34
2023-03-29T11:09:02.286Z,94.78
2023-03-29T11:14:26.115Z,94.99
2023-03-29T11:19:47.435Z,95.17
2023-03-29T11:24:52.831Z,95.39
2023-03-29T11:29:58.742Z,94.96
2023-03-29T11:35:19.209Z,95.29
2023-03-29T11:40:36.269Z,95.41
2023-03-29T11:45:51.476Z,96.13
2023-03-29T11:51:06.800Z,96.06
2023-03-29T11:56:15.850Z,96.18
2023-03-29T12:01:33.529Z,96.70
2023-03-29T12:07:15.823Z,96.82
2023-03-29T12:12:30.425Z,96.62
2023-03-29T12:18:10.352Z,96.34
2023-03-29T12:23:15.500Z,96.64
2023-03-29T12:28:18.134Z,97.14
2023-03-29T12:33:21.682Z,97.10
2023-03-29T12:38:31.253Z,97.48
2023-03-29T12:43:52.852Z,97.41
2023-03-29T12:49:31.865Z,97.50
2023-03-29T12:54:34.465Z,97.36
2023-03-29T12:59:39.971Z,96.96
2023-03-29T13:04:57.586Z,96.47
2023-03-29T13:10:08.942Z,96.85
2023-03-29T13:15:14.466Z,96.13
2023-03-29T13:20:17.469Z,97.06
2023-03-29T13:25:50.981Z,97.01
2023-03-29T13:31:23.007Z,97.24
2023-03-29T13:36:43.985Z,96.77
2023-03-29T13:41:51.834Z,97.16
2023-03-29T13:47:05.000Z,97.30
2023-03-29T13:52:21.449Z,97.28
2023-03-29T13:57:32.334Z,97.65
2023-03-29T14:02:48.096Z,98.35
2023-03-29T14:07:54.368Z,98.36
2023-03-29T14:12:57.725Z,98.85
2023-03-29T14:18:01.531Z,99.26
2023-03-29T14:23:13.836Z,100.00
2023-03-29T14:28:26.435Z,100.00
2023-03-29T14:33:33.551Z,99.87
2023-03-29T14:38:37.410Z,99.90
2023-03-29T14:43:40.934Z,99.62
2023-03-29T14:48:44.087Z,100.00
2023-03-29T14:53:48.714Z,99.83
2023-03-29T14:58:55.568Z,100.00
2023-03-29T15:04:11.107Z,99.92
2023-03-29T15:09:27.898Z,99.86
2023-03-29T15:14:34.040Z,100.00
2023-03-29T15:19:37.006Z,99.85
2023-03-29T15:24:47.790Z,100.00
2023-03-29T15:30:01.417Z,100.00
2023-03-29T15:35:09.476Z,99.91
2023-03-29T15:40:21.507Z,99.68
2023-03-29T15:45:23.947Z,99.78
2023-03-29T15:50:26.730Z,100.00
2023-03-29T15:55:32.154Z,100.00
2023-03-29T16:00:36.040Z,99.40
2023-03-29T16:05:38.726Z,100.00
2023-03-29T16:10:43.924Z,100.00
2023-03-29T16:15:47.065Z,100.00
2023-03-29T16:20:49.820Z,99.97
2023-03-29T16:25:52.442Z,100.00
2023-03-29T16:30:55.084Z,100.00
2023-03-29T16:35:57.783Z,100.00
2023-03-29T16:41:00.908Z,100.00
2023-03-29T16:46:04.090Z,99.77
2023-03-29T16:51:07.436Z,99.69
2023-03-29T16:56:10.975Z,99.85
2023-03-29T17:01:19.405Z,99.93
2023-03-29T17:06:22.157Z,100.00
2023-03-29T17:11:26.285Z,100.00
2023-03-29T17:16:29.357Z,100.00
2023-03-29T17:21:32.223Z,100.00
2023-03-29T17:26:34.818Z,100.00
2023-03-29T17:31:41.106Z,100.00
2023-03-29T17:36:45.816Z,100.00
2023-03-29T17:41:48.512Z,100.00
2023-03-29T17:46:51.508Z,100.00
2023-03-29T17:51:54.114Z,100.00
2023-03-29T17:56:56.830Z,99.87
2023-03-29T18:02:02.660Z,99.86
2023-03-29T18:07:05.327Z,99.87
2023-03-29T18:12:09.203Z,99.93
2023-03-29T18:17:11.873Z,100.00
2023-03-29T18:22:14.801Z,100.00
2023-03-29T18:27:17.860Z,100.00
2023-03-29T18:32:21.612Z,100.00
2023-03-29T18:37:24.360Z,100.00
2023-03-29T18:42:27.459Z,100.00
2023-03-29T18:47:30.234Z,100.00
2023-03-29T18:52:33.375Z,100.00
2023-03-29T18:57:36.179Z,100.00
2023-03-29T19:02:40.476Z,100.00
2023-03-29T19:07:43.258Z,100.00
2023-03-29T19:12:45.975Z,100.00
2023-03-29T19:17:48.680Z,99.91
2023-03-29T19:22:52.220Z,100.00
2023-03-29T19:27:55.111Z,99.88
2023-03-29T19:32:57.947Z,99.96
2023-03-29T19:38:01.008Z,99.44
2023-03-29T19:43:04.545Z,99.61
2023-03-29T19:48:07.408Z,99.90
2023-03-29T19:53:11.181Z,99.84
2023-03-29T19:58:13.790Z,100.00
2023-03-29T20:03:17.441Z,99.54
2023-03-29T20:08:20.389Z,99.55
2023-03-29T20:13:35.363Z,100.00
2023-03-29T20:18:41.060Z,99.17
2023-03-29T20:23:44.265Z,100.00
2023-03-29T20:28:46.979Z,99.68
2023-03-29T20:33:49.850Z,100.00
2023-03-29T20:38:55.310Z,100.00
2023-03-29T20:43:58.636Z,99.62
2023-03-29T20:49:06.110Z,99.79
2023-03-29T20:54:10.043Z,99.56
2023-03-29T20:59:12.744Z,99.17
2023-03-29T21:04:15.512Z,98.80
2023-03-29T21:09:24.181Z,99.22
2023-03-29T21:14:26.910Z,99.66
2023-03-29T21:19:29.859Z,99.27
2023-03-29T21:24:33.229Z,99.11
2023-03-29T21:29:35.896Z,98.71
2023-03-29T21:34:38.581Z,98.76
2023-03-29T21:39:41.453Z,99.35
2023-03-29T21:44:44.502Z,99.16
2023-03-29T21:49:47.400Z,98.64
2023-03-29T21:54:50.067Z,99.04
2023-03-29T21:59:52.693Z,99.08
2023-03-29T22:04:55.763Z,99.84
2023-03-29T22:09:58.758Z,99.37
2023-03-29T22:15:01.942Z,98.85
2023-03-29T22:20:14.642Z,99.04
2023-03-29T22:25:18.742Z,99.06
2023-03-29T22:30:22.957Z,98.94
2023-03-29T22:35:25.783Z,99.11
2023-03-29T22:40:28.365Z,98.47
2023-03-29T22:45:30.961Z,98.61
2023-03-29T22:50:33.501Z,99.02
2023-03-29T22:55:36.831Z,98.86
2023-03-29T23:00:39.398Z,98.38
2023-03-29T23:05:42.023Z,98.60
2023-03-29T23:10:47.121Z,99.01
2023-03-29T23:15:50.663Z,98.84
2023-03-29T23:20:55.707Z,99.12
2023-03-29T23:25:58.345Z,99.16
2023-03-29T23:31:04.297Z,99.10
2023-03-29T23:36:15.561Z,98.98
2023-03-29T23:41:20.249Z,98.47
2023-03-29T23:46:22.893Z,98.74
2023-03-29T23:51:28.442Z,98.08
2023-03-29T23:56:31.368Z,98.53
